createdAt,value
2023-01-31T00:01:06.747Z,5.80
2023-01-31T00:03:35.175Z,7.82
2023-01-31T00:06:23.984Z,6.88
2023-01-31T00:08:53.282Z,5.57
2023-01-31T00:11:21.934Z,5.05
2023-01-31T00:13:49.732Z,5.65
2023-01-31T00:16:17.945Z,5.47
2023-01-31T00:18:45.922Z,5.25
2023-01-31T00:21:14.495Z,6.03
2023-01-31T00:23:43.349Z,6.15
2023-01-31T00:26:13.820Z,6.60
2023-01-31T00:28:42.214Z,5.70
2023-01-31T00:31:10.047Z,6.00
2023-01-31T00:33:38.748Z,6.93
2023-01-31T00:36:07.272Z,5.68
2023-01-31T00:38:35.059Z,5.85
2023-01-31T00:41:03.996Z,5.80
2023-01-31T00:43:33.743Z,6.00
2023-01-31T00:46:01.422Z,7.00
2023-01-31T00:48:29.518Z,6.28
2023-01-31T00:50:59.905Z,5.60
2023-01-31T00:53:29.143Z,6.28
2023-01-31T00:56:02.813Z,5.00
2023-01-31T00:58:30.475Z,6.28
2023-01-31T01:01:06.833Z,6.05
2023-01-31T01:03:35.475Z,5.90
2023-01-31T01:06:03.186Z,5.03
2023-01-31T01:08:31.194Z,5.57
2023-01-31T01:11:05.217Z,5.15
2023-01-31T01:13:33.012Z,5.53
2023-01-31T01:16:06.041Z,5.32
2023-01-31T01:18:35.472Z,5.55
2023-01-31T01:21:07.407Z,5.60
2023-01-31T01:23:35.101Z,5.95
2023-01-31T01:26:02.737Z,6.28
2023-01-31T01:28:30.506Z,5.63
2023-01-31T01:30:58.198Z,5.90
2023-01-31T01:33:27.245Z,6.25
2023-01-31T01:35:55.014Z,5.75
2023-01-31T01:38:22.618Z,6.68
2023-01-31T01:40:50.250Z,6.25
2023-01-31T01:43:18.058Z,5.75
2023-01-31T01:45:46.485Z,5.55
2023-01-31T01:48:17.523Z,6.00
2023-01-31T01:50:48.698Z,6.68
2023-01-31T01:53:18.617Z,6.25
2023-01-31T01:55:47.279Z,4.85
2023-01-31T01:58:16.159Z,5.18
2023-01-31T02:00:45.370Z,4.65
2023-01-31T02:03:13.141Z,6.32
2023-01-31T02:05:42.743Z,5.65
2023-01-31T02:08:11.957Z,6.28
2023-01-31T02:10:41.883Z,5.15
2023-01-31T02:13:09.575Z,5.38
2023-01-31T02:15:37.348Z,4.95
2023-01-31T02:18:05.188Z,4.97
2023-01-31T02:20:47.680Z,6.35
2023-01-31T02:23:26.194Z,4.85
2023-01-31T02:26:13.097Z,4.15
2023-01-31T02:29:01.803Z,5.30
2023-01-31T02:31:50.139Z,3.65
2023-01-31T02:34:23.828Z,4.00
2023-01-31T02:36:57.226Z,5.32
2023-01-31T02:39:29.418Z,4.75
2023-01-31T02:41:58.654Z,4.50
2023-01-31T02:44:47.147Z,4.55
2023-01-31T02:47:19.500Z,5.35
2023-01-31T02:49:52.079Z,4.85
2023-01-31T02:52:22.768Z,5.00
2023-01-31T02:55:14.091Z,4.65
2023-01-31T02:57:42.658Z,4.95
2023-01-31T03:00:11.337Z,4.88
2023-01-31T03:02:39.272Z,5.13
2023-01-31T03:05:08.646Z,6.38
2023-01-31T03:07:38.470Z,5.47
2023-01-31T03:10:12.850Z,4.35
2023-01-31T03:12:47.485Z,4.63
2023-01-31T03:15:24.094Z,4.50
2023-01-31T03:17:53.839Z,6.03
2023-01-31T03:20:24.901Z,4.40
2023-01-31T03:22:54.714Z,3.67
2023-01-31T03:25:24.260Z,4.38
2023-01-31T03:27:55.729Z,4.78
2023-01-31T03:30:27.186Z,4.72
2023-01-31T03:32:57.096Z,4.47
2023-01-31T03:35:28.676Z,4.65
2023-01-31T03:37:58.711Z,4.60
2023-01-31T03:40:28.490Z,5.75
2023-01-31T03:43:00.519Z,4.70
2023-01-31T03:45:29.989Z,4.82
2023-01-31T03:47:58.703Z,4.45
2023-01-31T03:50:29.576Z,4.55
2023-01-31T03:52:59.822Z,4.43
2023-01-31T03:55:32.481Z,5.13
2023-01-31T03:58:01.144Z,4.20
2023-01-31T04:00:29.191Z,4.35
2023-01-31T04:03:00.208Z,5.68
2023-01-31T04:05:32.587Z,4.85
2023-01-31T04:08:00.736Z,5.30
2023-01-31T04:10:28.608Z,4.80
2023-01-31T04:12:56.248Z,5.00
2023-01-31T04:15:24.173Z,5.15
2023-01-31T04:17:51.825Z,5.43
2023-01-31T04:20:19.584Z,4.53
2023-01-31T04:22:48.739Z,5.18
2023-01-31T04:25:16.426Z,5.50
2023-01-31T04:27:44.244Z,4.97
2023-01-31T04:30:12.543Z,4.50
2023-01-31T04:32:40.174Z,4.50
2023-01-31T04:35:08.139Z,4.65
2023-01-31T04:37:35.806Z,4.40
2023-01-31T04:40:05.339Z,5.00
2023-01-31T04:42:33.317Z,5.75
2023-01-31T04:45:00.976Z,5.28
2023-01-31T04:47:28.790Z,5.03
2023-01-31T04:49:56.441Z,4.40
2023-01-31T04:52:24.986Z,5.03
2023-01-31T04:54:52.720Z,4.70
2023-01-31T04:57:21.803Z,5.18
2023-01-31T04:59:50.334Z,4.75
2023-01-31T05:02:18.841Z,4.28
2023-01-31T05:04:47.994Z,4.50
2023-01-31T05:07:15.691Z,4.80
2023-01-31T05:09:44.090Z,5.53
2023-01-31T05:12:11.837Z,4.07
2023-01-31T05:14:40.843Z,5.03
2023-01-31T05:17:08.573Z,5.03
2023-01-31T05:19:38.906Z,4.57
2023-01-31T05:22:06.621Z,4.43
2023-01-31T05:24:34.723Z,3.95
2023-01-31T05:27:03.449Z,3.75
2023-01-31T05:29:33.619Z,4.80
2023-01-31T05:32:03.704Z,4.85
2023-01-31T05:34:33.436Z,4.80
2023-01-31T05:37:01.484Z,4.90
2023-01-31T05:39:29.247Z,5.75
2023-01-31T05:41:56.975Z,4.53
2023-01-31T05:44:25.542Z,4.05
2023-01-31T05:46:53.238Z,5.13
2023-01-31T05:49:22.254Z,5.10
2023-01-31T05:51:49.919Z,4.90
2023-01-31T05:54:17.739Z,4.95
2023-01-31T05:56:45.423Z,3.88
2023-01-31T05:59:13.088Z,5.55
2023-01-31T06:01:44.428Z,3.72
2023-01-31T06:04:12.259Z,5.53
2023-01-31T06:06:42.592Z,4.40
2023-01-31T06:09:11.707Z,3.72
2023-01-31T06:11:39.461Z,4.53
2023-01-31T06:14:07.113Z,5.00
2023-01-31T06:16:34.975Z,6.25
2023-01-31T06:19:02.990Z,4.88
2023-01-31T06:21:30.988Z,4.60
2023-01-31T06:24:01.015Z,3.38
2023-01-31T06:26:28.797Z,4.55
2023-01-31T06:28:57.859Z,3.80
2023-01-31T06:31:25.574Z,3.35
2023-01-31T06:33:53.425Z,4.30
2023-01-31T06:36:21.133Z,4.20
2023-01-31T06:38:51.819Z,5.18
2023-01-31T06:41:21.294Z,3.45
2023-01-31T06:43:49.050Z,4.35
2023-01-31T06:46:16.779Z,3.60
2023-01-31T06:48:44.536Z,3.58
2023-01-31T06:51:12.188Z,4.18
2023-01-31T06:53:40.014Z,3.60
2023-01-31T06:56:08.355Z,3.78
2023-01-31T06:58:37.400Z,4.38
2023-01-31T07:01:05.837Z,3.22
2023-01-31T07:03:33.983Z,3.15
2023-01-31T07:06:01.665Z,3.72
2023-01-31T07:08:29.354Z,3.58
2023-01-31T07:10:57.103Z,4.00
2023-01-31T07:13:24.768Z,3.20
2023-01-31T07:15:53.819Z,4.60
2023-01-31T07:18:21.718Z,3.33
2023-01-31T07:20:49.334Z,3.75
2023-01-31T07:23:17.002Z,3.40
2023-01-31T07:25:45.004Z,3.53
2023-01-31T07:28:13.077Z,3.08
2023-01-31T07:30:43.827Z,3.72
2023-01-31T07:33:13.263Z,5.13
2023-01-31T07:35:42.605Z,3.40
2023-01-31T07:38:11.391Z,3.92
2023-01-31T07:40:40.117Z,3.55
2023-01-31T07:43:08.059Z,3.67
2023-01-31T07:45:36.425Z,3.83
2023-01-31T07:48:06.144Z,4.07
2023-01-31T07:50:35.475Z,3.33
2023-01-31T07:53:03.214Z,3.25
2023-01-31T07:55:30.869Z,3.97
2023-01-31T07:57:58.600Z,3.80
2023-01-31T08:00:43.228Z,3.65
2023-01-31T08:03:37.176Z,3.80
2023-01-31T08:06:08.273Z,4.30
2023-01-31T08:08:36.233Z,3.78
2023-01-31T08:11:05.074Z,3.38
2023-01-31T08:13:32.938Z,3.33
2023-01-31T08:16:00.594Z,4.20
2023-01-31T08:18:28.236Z,3.80
2023-01-31T08:20:57.415Z,3.92
2023-01-31T08:23:26.592Z,4.80
2023-01-31T08:25:54.275Z,3.67
2023-01-31T08:28:21.932Z,3.90
2023-01-31T08:31:02.813Z,3.70
2023-01-31T08:33:40.192Z,3.05
2023-01-31T08:36:11.996Z,3.72
2023-01-31T08:38:41.082Z,3.45
2023-01-31T08:41:08.895Z,3.25
2023-01-31T08:43:53.708Z,3.85
2023-01-31T08:46:23.842Z,3.67
2023-01-31T08:48:51.611Z,4.13
2023-01-31T08:51:19.316Z,3.67
2023-01-31T08:53:49.159Z,5.47
2023-01-31T08:56:17.019Z,2.92
2023-01-31T08:58:45.351Z,2.97
2023-01-31T09:01:14.418Z,3.03
2023-01-31T09:03:45.185Z,3.70
2023-01-31T09:06:14.946Z,3.55
2023-01-31T09:08:42.738Z,3.70
2023-01-31T09:11:11.860Z,3.72
2023-01-31T09:13:39.568Z,3.95
2023-01-31T09:16:09.002Z,2.95
2023-01-31T09:18:37.409Z,3.17
2023-01-31T09:21:06.219Z,4.00
2023-01-31T09:23:33.903Z,3.15
2023-01-31T09:26:01.588Z,3.28
2023-01-31T09:28:30.983Z,3.30
2023-01-31T09:31:03.431Z,3.78
2023-01-31T09:33:32.175Z,3.42
2023-01-31T09:36:00.443Z,3.25
2023-01-31T09:38:28.673Z,3.08
2023-01-31T09:40:57.300Z,3.03
2023-01-31T09:43:26.845Z,4.22
2023-01-31T09:45:57.593Z,4.35
2023-01-31T09:48:28.433Z,3.67
2023-01-31T09:50:58.612Z,3.97
2023-01-31T09:53:28.919Z,3.13
2023-01-31T09:56:01.007Z,3.63
2023-01-31T09:58:35.336Z,3.15
2023-01-31T10:01:14.614Z,4.15
2023-01-31T10:03:45.766Z,2.60
2023-01-31T10:06:18.381Z,2.78
2023-01-31T10:08:48.331Z,3.58
2023-01-31T10:11:19.156Z,2.97
2023-01-31T10:13:49.821Z,3.38
2023-01-31T10:16:24.853Z,3.20
2023-01-31T10:18:56.471Z,3.00
2023-01-31T10:21:26.231Z,3.67
2023-01-31T10:23:57.358Z,2.80
2023-01-31T10:26:26.896Z,3.22
2023-01-31T10:28:56.438Z,3.03
2023-01-31T10:31:30.330Z,3.05
2023-01-31T10:33:59.824Z,4.10
2023-01-31T10:36:30.505Z,3.10
2023-01-31T10:39:02.981Z,4.47
2023-01-31T10:41:40.615Z,3.65
2023-01-31T10:44:11.683Z,3.20
2023-01-31T10:46:41.375Z,3.63
2023-01-31T10:49:09.998Z,3.35
2023-01-31T10:51:43.820Z,3.00
2023-01-31T10:54:18.242Z,4.40
2023-01-31T10:56:47.534Z,3.25
2023-01-31T10:59:25.586Z,3.78
2023-01-31T11:01:54.832Z,3.38
2023-01-31T11:04:27.262Z,3.70
2023-01-31T11:06:55.271Z,2.63
2023-01-31T11:09:23.566Z,3.55
2023-01-31T11:11:55.185Z,4.15
2023-01-31T11:14:22.857Z,3.88
2023-01-31T11:16:51.487Z,3.80
2023-01-31T11:19:23.644Z,4.60
2023-01-31T11:21:52.137Z,4.47
2023-01-31T11:24:22.265Z,4.13
2023-01-31T11:26:52.997Z,3.65
2023-01-31T11:29:26.909Z,4.03
2023-01-31T11:31:55.302Z,4.72
2023-01-31T11:34:25.500Z,5.03
2023-01-31T11:36:53.405Z,4.10
2023-01-31T11:39:29.190Z,3.30
2023-01-31T11:41:57.046Z,3.95
2023-01-31T11:44:25.021Z,3.60
2023-01-31T11:46:54.130Z,4.70
2023-01-31T11:49:28.827Z,5.10
2023-01-31T11:51:56.890Z,4.35
2023-01-31T11:54:26.803Z,4.00
2023-01-31T11:56:56.373Z,4.55
2023-01-31T11:59:26.681Z,3.22
2023-01-31T12:01:55.329Z,4.43
2023-01-31T12:04:25.275Z,3.42
2023-01-31T12:06:59.786Z,3.10
2023-01-31T12:09:28.719Z,3.00
2023-01-31T12:11:57.715Z,3.45
2023-01-31T12:14:26.188Z,4.00
2023-01-31T12:16:55.766Z,3.95
2023-01-31T12:19:30.406Z,2.85
2023-01-31T12:22:03.911Z,3.33
2023-01-31T12:24:37.946Z,2.63
2023-01-31T12:27:12.656Z,2.70
2023-01-31T12:29:57.327Z,4.22
2023-01-31T12:32:32.419Z,3.45
2023-01-31T12:35:14.317Z,3.05
2023-01-31T12:37:49.280Z,2.38
2023-01-31T12:40:29.540Z,3.05
2023-01-31T12:42:59.742Z,1.90
2023-01-31T12:45:41.902Z,1.67
2023-01-31T12:48:28.221Z,2.00
2023-01-31T12:50:59.048Z,4.18
2023-01-31T12:53:37.327Z,4.10
2023-01-31T12:56:14.668Z,2.33
2023-01-31T12:58:49.616Z,2.55
2023-01-31T13:01:18.870Z,3.10
2023-01-31T13:03:55.449Z,2.80
2023-01-31T13:06:24.978Z,2.85
2023-01-31T13:09:07.398Z,3.03
2023-01-31T13:11:38.519Z,2.47
2023-01-31T13:14:07.130Z,3.28
2023-01-31T13:16:37.528Z,2.80
2023-01-31T13:19:06.563Z,3.65
2023-01-31T13:22:02.300Z,3.70
2023-01-31T13:24:34.948Z,3.00
2023-01-31T13:27:05.003Z,2.97
2023-01-31T13:29:34.564Z,3.40
2023-01-31T13:32:03.522Z,2.13
2023-01-31T13:34:36.044Z,3.80
2023-01-31T13:37:04.232Z,2.88
2023-01-31T13:39:34.816Z,3.22
2023-01-31T13:42:02.557Z,2.80
2023-01-31T13:44:30.404Z,3.10
2023-01-31T13:46:59.717Z,3.40
2023-01-31T13:49:29.387Z,5.47
2023-01-31T13:51:58.415Z,3.55
2023-01-31T13:54:27.799Z,2.83
2023-01-31T13:56:58.309Z,2.95
2023-01-31T13:59:27.661Z,2.90
2023-01-31T14:01:56.685Z,3.08
2023-01-31T14:04:32.169Z,2.75
2023-01-31T14:09:28.654Z,2.35
2023-01-31T14:11:58.562Z,2.60
2023-01-31T14:14:41.257Z,2.25
2023-01-31T14:17:11.954Z,1.70
2023-01-31T14:19:55.124Z,1.42
2023-01-31T14:22:23.762Z,3.17
2023-01-31T14:25:03.348Z,2.58
2023-01-31T14:27:33.561Z,2.10
2023-01-31T14:30:09.626Z,2.50
2023-01-31T14:32:39.763Z,2.30
2023-01-31T14:35:19.054Z,2.92
2023-01-31T14:37:48.691Z,3.25
2023-01-31T14:40:18.883Z,2.80
2023-01-31T14:42:55.639Z,2.25
2023-01-31T14:45:29.086Z,2.35
2023-01-31T14:48:14.620Z,2.40
2023-01-31T14:50:48.999Z,2.65
2023-01-31T14:53:26.782Z,2.55
2023-01-31T14:56:07.500Z,3.45
2023-01-31T14:58:37.430Z,2.38
2023-01-31T15:01:06.527Z,2.65
2023-01-31T15:03:36.395Z,2.72
2023-01-31T15:06:09.804Z,2.45
2023-01-31T15:08:39.468Z,2.50
2023-01-31T15:11:08.164Z,2.28
2023-01-31T15:13:47.108Z,2.58
2023-01-31T15:16:20.241Z,3.65
2023-01-31T15:18:53.072Z,2.35
2023-01-31T15:21:23.003Z,2.92
2023-01-31T15:23:51.431Z,1.73
2023-01-31T15:26:19.522Z,1.85
2023-01-31T15:28:51.506Z,2.17
2023-01-31T15:31:21.878Z,2.15
2023-01-31T15:33:51.501Z,2.15
2023-01-31T15:36:21.430Z,2.40
2023-01-31T15:38:52.922Z,2.80
2023-01-31T15:41:22.978Z,2.28
2023-01-31T15:43:53.439Z,2.00
2023-01-31T15:46:25.372Z,2.15
2023-01-31T15:48:53.111Z,1.98
2023-01-31T15:51:21.069Z,1.70
2023-01-31T15:53:49.227Z,2.08
2023-01-31T15:56:19.175Z,2.35
2023-01-31T15:58:48.067Z,2.45
2023-01-31T16:01:18.062Z,2.47
2023-01-31T16:03:51.623Z,1.58
2023-01-31T16:06:22.494Z,2.53
2023-01-31T16:08:53.501Z,2.08
2023-01-31T16:11:21.819Z,2.00
2023-01-31T16:13:50.084Z,2.13
2023-01-31T16:16:19.790Z,2.28
2023-01-31T16:18:49.438Z,1.65
2023-01-31T16:21:24.703Z,2.10
2023-01-31T16:23:58.593Z,1.77
2023-01-31T16:26:27.738Z,2.08
2023-01-31T16:28:57.293Z,2.00
2023-01-31T16:31:27.808Z,2.10
2023-01-31T16:33:57.469Z,1.75
2023-01-31T16:36:26.213Z,2.72
2023-01-31T16:38:57.236Z,2.47
2023-01-31T16:41:41.805Z,2.33
2023-01-31T16:44:12.531Z,2.50
2023-01-31T16:46:44.463Z,1.50
2023-01-31T16:49:19.801Z,2.55
2023-01-31T16:54:16.388Z,1.90
2023-01-31T16:56:44.300Z,2.08
2023-01-31T16:59:28.142Z,2.15
2023-01-31T17:02:01.742Z,1.92
2023-01-31T17:04:30.356Z,2.10
2023-01-31T17:07:03.556Z,2.78
2023-01-31T17:09:31.305Z,2.00
2023-01-31T17:11:59.006Z,1.85
2023-01-31T17:14:26.700Z,2.50
2023-01-31T17:16:55.108Z,1.98
2023-01-31T17:19:24.167Z,2.60
2023-01-31T17:21:52.138Z,2.65
2023-01-31T17:24:22.615Z,2.72
2023-01-31T17:26:52.662Z,2.60
2023-01-31T17:29:21.422Z,2.95
2023-01-31T17:31:49.137Z,2.33
2023-01-31T17:34:17.336Z,2.22
2023-01-31T17:36:46.592Z,2.90
2023-01-31T17:39:15.012Z,2.60
2023-01-31T17:41:42.908Z,2.95
2023-01-31T17:44:14.019Z,3.00
2023-01-31T17:46:41.810Z,3.55
2023-01-31T17:49:09.597Z,2.72
2023-01-31T17:51:37.426Z,3.08
2023-01-31T17:54:06.705Z,2.92
2023-01-31T17:56:34.462Z,3.28
2023-01-31T17:59:02.168Z,3.70
2023-01-31T18:01:29.846Z,3.25
2023-01-31T18:03:58.214Z,2.90
2023-01-31T18:06:25.875Z,4.15
2023-01-31T18:08:53.621Z,2.80
2023-01-31T18:11:22.663Z,3.53
2023-01-31T18:13:50.348Z,3.33
2023-01-31T18:16:20.813Z,3.63
2023-01-31T18:18:48.824Z,3.22
2023-01-31T18:21:17.314Z,3.42
2023-01-31T18:23:45.273Z,3.92
2023-01-31T18:26:13.444Z,3.88
2023-01-31T18:28:42.857Z,3.17
2023-01-31T18:31:13.847Z,3.60
2023-01-31T18:33:42.258Z,3.95
2023-01-31T18:36:13.421Z,3.17
2023-01-31T18:38:42.677Z,3.67
2023-01-31T18:41:12.114Z,3.75
2023-01-31T18:43:39.915Z,4.57
2023-01-31T18:46:10.288Z,4.82
2023-01-31T18:48:39.109Z,4.63
2023-01-31T18:51:08.532Z,3.90
2023-01-31T18:53:37.049Z,5.25
2023-01-31T18:56:06.056Z,4.28
2023-01-31T18:58:34.526Z,3.42
2023-01-31T19:01:10.412Z,3.97
2023-01-31T19:03:38.232Z,4.43
2023-01-31T19:06:09.733Z,3.95
2023-01-31T19:08:37.748Z,3.75
2023-01-31T19:11:09.581Z,4.03
2023-01-31T19:13:38.086Z,3.55
2023-01-31T19:16:06.925Z,4.47
2023-01-31T19:18:36.021Z,4.45
2023-01-31T19:21:05.235Z,3.72
2023-01-31T19:23:33.265Z,4.95
2023-01-31T19:26:02.741Z,4.97
2023-01-31T19:28:30.400Z,5.35
2023-01-31T19:30:58.231Z,5.25
2023-01-31T19:33:26.945Z,4.22
2023-01-31T19:35:55.983Z,4.32
2023-01-31T19:38:23.787Z,3.83
2023-01-31T19:40:51.911Z,4.38
2023-01-31T19:43:19.754Z,4.35
2023-01-31T19:45:48.466Z,4.40
2023-01-31T19:48:16.181Z,4.95
2023-01-31T19:50:44.081Z,5.28
2023-01-31T19:53:13.208Z,3.85
2023-01-31T19:55:40.840Z,5.25
2023-01-31T19:58:08.535Z,5.68
2023-01-31T20:00:36.320Z,6.13
2023-01-31T20:03:03.964Z,4.95
2023-01-31T20:05:32.953Z,5.40
2023-01-31T20:08:00.628Z,5.25
2023-01-31T20:10:31.135Z,4.38
2023-01-31T20:13:02.489Z,4.97
2023-01-31T20:15:30.407Z,5.63
2023-01-31T20:17:58.201Z,5.07
2023-01-31T20:20:25.944Z,5.25
2023-01-31T20:22:53.637Z,6.05
2023-01-31T20:25:21.684Z,5.97
2023-01-31T20:27:50.701Z,7.00
2023-01-31T20:30:20.594Z,6.13
2023-01-31T20:32:48.766Z,5.45
2023-01-31T20:35:16.923Z,5.63
2023-01-31T20:37:44.635Z,5.30
2023-01-31T20:40:12.981Z,6.47
2023-01-31T20:42:40.694Z,6.03
2023-01-31T20:45:10.375Z,5.97
2023-01-31T20:47:38.128Z,5.45
2023-01-31T20:50:06.372Z,5.75
2023-01-31T20:52:35.209Z,5.82
2023-01-31T20:55:02.882Z,6.65
2023-01-31T20:57:30.630Z,6.30
2023-01-31T20:59:58.294Z,5.57
2023-01-31T21:02:27.351Z,5.70
2023-01-31T21:04:55.836Z,6.38
2023-01-31T21:07:24.090Z,6.15
2023-01-31T21:09:51.731Z,7.00
2023-01-31T21:12:19.440Z,5.63
2023-01-31T21:14:47.576Z,4.90
2023-01-31T21:17:15.484Z,6.28
2023-01-31T21:19:44.565Z,5.47
2023-01-31T21:22:14.465Z,5.45
2023-01-31T21:24:42.274Z,5.45
2023-01-31T21:27:09.947Z,5.72
2023-01-31T21:29:40.963Z,5.30
2023-01-31T21:32:08.598Z,5.65
2023-01-31T21:34:36.300Z,5.70
2023-01-31T21:37:05.447Z,6.32
2023-01-31T21:39:33.406Z,5.28
2023-01-31T21:42:16.266Z,6.88
2023-01-31T21:44:45.249Z,5.80
2023-01-31T21:47:13.121Z,7.00
2023-01-31T21:49:40.936Z,7.22
2023-01-31T21:52:10.299Z,6.57
2023-01-31T21:54:38.199Z,7.63
2023-01-31T21:57:05.894Z,6.90
2023-01-31T21:59:33.585Z,8.35
2023-01-31T22:02:01.228Z,8.75
2023-01-31T22:04:29.107Z,7.05
2023-01-31T22:06:57.226Z,7.90
2023-01-31T22:09:26.369Z,7.82
2023-01-31T22:11:54.604Z,8.95
2023-01-31T22:14:24.080Z,8.13
2023-01-31T22:16:52.891Z,9.10
2023-01-31T22:19:20.636Z,9.48
2023-01-31T22:21:48.323Z,8.02
2023-01-31T22:24:16.796Z,8.90
2023-01-31T22:26:46.114Z,8.35
2023-01-31T22:29:15.592Z,9.65
2023-01-31T22:31:43.868Z,8.23
2023-01-31T22:34:13.464Z,9.05
2023-01-31T22:36:41.178Z,8.73
2023-01-31T22:39:08.956Z,8.80
2023-01-31T22:41:36.599Z,8.43
2023-01-31T22:44:05.841Z,8.27
2023-01-31T22:46:33.549Z,9.35
2023-01-31T22:49:01.264Z,8.75
2023-01-31T22:51:29.852Z,8.15
2023-01-31T22:53:58.277Z,7.28
2023-01-31T22:56:27.121Z,7.68
2023-01-31T22:58:58.733Z,6.88
2023-01-31T23:01:29.114Z,6.90
2023-01-31T23:03:57.812Z,7.07
2023-01-31T23:06:25.624Z,6.93
2023-01-31T23:08:53.454Z,6.68
2023-01-31T23:11:21.271Z,7.03
2023-01-31T23:13:49.296Z,5.95
2023-01-31T23:16:18.079Z,6.65
2023-01-31T23:18:47.248Z,6.88
2023-01-31T23:21:15.463Z,6.53
2023-01-31T23:23:43.886Z,6.65
2023-01-31T23:26:11.678Z,7.43
2023-01-31T23:28:39.781Z,5.50
2023-01-31T23:31:08.007Z,6.50
2023-01-31T23:33:35.980Z,5.45
2023-01-31T23:36:05.338Z,7.80
2023-01-31T23:38:33.046Z,6.43
2023-01-31T23:41:00.711Z,4.85
2023-01-31T23:43:28.436Z,6.88
2023-01-31T23:45:56.239Z,5.68
2023-01-31T23:48:24.022Z,6.35
2023-01-31T23:50:51.692Z,6.22
2023-01-31T23:53:20.720Z,6.15
2023-01-31T23:55:48.420Z,4.90
2023-01-31T23:58:16.086Z,5.63
